VATSIM kuvia tänne

<< < (261/322) > >>

J Ahponen:
Tänään lennettiinkin NAX1187 EFHK-ENGM. Jati pyyteli muutman kuvan lähestymisestä niin tässä niitä nyt ois. Kiitotie saatiin näkyviin 68ft AGL, joten autolandiks meni homma.
ENGM 111820Z VRB01KT 0400 R19R/0275V0600D R01R/0450N FZFG VV001 M04/M05 Q1020 TEMPO 0300 FZFG

200RA, ei kiitotietä näkyvissä. Tässä kohassa olisi siis ILS+DME minimit.




68 ft AGL. Kiitotie näkyvissä. Active Sky Next kyllä hoiti homman kotiin erinomaisesti! 

flykarppa:
Ohos! Olipa kelit.. Eli CATI 169 ft ja CATII 73 ft (C).. 19R oli vissiin alastulo--

jari

J Ahponen:
19R joo oli. ILS+DME = baro 880ft. CATII = Radio 100ft.

flykarppa:
Quote

19R joo oli. ILS+DME = baro 880ft. CATII = Radio 100ft.


Ahaa. Katsoin arvoja oheisesta linkistä jos nyt aukeaa tässä
https://www.ippc.no/norway_aip/current/aip/ad/engm/EN_AD_2_ENGM_5-11_en.pdf
jari

J Ahponen:
Jeps. AIP arvot aina heittää jonkun verran. Syytä en tiedä. Kuitenkin Navigraphin kartat antoi nuo arvot ja niin luulisin myös että jeppesen tekee.

Jouka

Navigation

Up one level

Next page

Previous page